Time;durP1;ratioP1;P1;durP2;ratioP2;P2;SDS_P1;SDS_P2;PMS_P1;PMS_P2;Temp;Humidity;BMP_temperature;BMP_pressure;BME280_temperature;BME280_humidity;BME280_pressure;Samples;Min_cycle;Max_cycle;Signal;HPM_P1;HPM_P2
2022/05/02 00:00:51;;;;;;;6.90;4.10;;;10.10;99.90;;;;;;4906187;29;20227;-79
2022/05/02 00:03:35;;;;;;;6.37;4.77;;;10.10;99.90;;;;;;4902618;29;20208;-77
2022/05/02 00:06:19;;;;;;;7.60;4.27;;;10.00;99.90;;;;;;4906315;29;20227;-78
2022/05/02 00:09:03;;;;;;;6.03;3.93;;;10.10;99.90;;;;;;4905596;29;20207;-77
2022/05/02 00:11:47;;;;;;;5.53;3.97;;;10.00;99.90;;;;;;4895632;29;20230;-77
2022/05/02 00:14:31;;;;;;;5.40;4.37;;;10.00;99.90;;;;;;4909421;29;20218;-77
2022/05/02 00:17:16;;;;;;;5.83;4.13;;;10.00;99.90;;;;;;4909619;29;20286;-78
2022/05/02 00:20:00;;;;;;;5.00;4.50;;;10.00;99.90;;;;;;4902164;29;20354;-79
2022/05/02 00:22:45;;;;;;;6.60;4.77;;;10.00;99.90;;;;;;4907789;29;20214;-78
2022/05/02 00:25:29;;;;;;;11.37;4.87;;;10.00;99.90;;;;;;4901315;29;20576;-78
2022/05/02 00:28:14;;;;;;;7.33;4.90;;;10.00;99.90;;;;;;4902733;29;20208;-76
2022/05/02 00:30:58;;;;;;;5.73;4.93;;;10.00;99.90;;;;;;4897388;29;20254;-77
2022/05/02 00:33:42;;;;;;;7.23;5.20;;;9.90;99.90;;;;;;4895438;29;20223;-78
2022/05/02 00:36:26;;;;;;;5.37;4.83;;;9.90;99.90;;;;;;4901096;29;20239;-78
2022/05/02 00:39:11;;;;;;;6.47;4.97;;;9.90;99.90;;;;;;4903751;29;20195;-77
2022/05/02 00:41:55;;;;;;;5.93;4.80;;;9.90;99.90;;;;;;4903849;29;20219;-77
2022/05/02 00:44:43;;;;;;;6.93;4.80;;;9.90;99.90;;;;;;4907027;29;20200;-77
2022/05/02 00:47:28;;;;;;;6.27;4.93;;;9.90;99.90;;;;;;4906753;29;20203;-77
2022/05/02 00:50:12;;;;;;;6.10;4.30;;;9.90;99.90;;;;;;4899300;29;20195;-78
2022/05/02 00:52:56;;;;;;;6.20;5.10;;;9.80;99.90;;;;;;4902731;29;20239;-77
2022/05/02 00:55:42;;;;;;;4.97;4.47;;;9.80;99.90;;;;;;4907000;29;20727;-79
2022/05/02 00:58:26;;;;;;;8.20;4.57;;;9.70;99.90;;;;;;4902970;29;20191;-78
2022/05/02 01:01:11;;;;;;;6.50;4.67;;;9.80;99.90;;;;;;4902905;29;20378;-78
2022/05/02 01:03:55;;;;;;;7.70;4.87;;;9.70;99.90;;;;;;4899475;29;20218;-77
2022/05/02 01:07:19;;;;;;;6.03;4.47;;;9.70;99.90;;;;;;4887931;29;20255;-77
2022/05/02 01:09:52;;;;;;;6.60;4.90;;;9.80;99.90;;;;;;4903692;29;20543;-77
2022/05/02 01:12:38;;;;;;;9.37;4.67;;;9.90;99.90;;;;;;4900583;29;20227;-78
2022/05/02 01:15:23;;;;;;;9.77;5.00;;;9.80;99.90;;;;;;4900420;29;20212;-78
2022/05/02 01:18:07;;;;;;;6.00;4.83;;;9.80;99.90;;;;;;4902391;29;20208;-77
2022/05/02 01:20:51;;;;;;;7.70;4.20;;;9.80;99.90;;;;;;4898346;29;20251;-77
2022/05/02 01:23:35;;;;;;;8.10;4.77;;;9.80;99.90;;;;;;4905496;29;20199;-78
2022/05/02 01:26:21;;;;;;;6.33;4.50;;;9.70;99.90;;;;;;4901812;29;20200;-77
2022/05/02 01:29:06;;;;;;;7.60;4.40;;;9.70;99.90;;;;;;4900722;29;20259;-77
2022/05/02 01:31:53;;;;;;;5.00;4.07;;;9.70;99.90;;;;;;4901652;29;20588;-78
2022/05/02 01:34:42;;;;;;;6.53;4.37;;;9.70;99.90;;;;;;4900269;29;20199;-78
2022/05/02 01:37:26;;;;;;;10.37;4.50;;;9.70;99.90;;;;;;4899189;29;20620;-78
2022/05/02 01:40:11;;;;;;;7.00;4.13;;;9.70;99.90;;;;;;4902233;29;20575;-78
2022/05/02 01:42:55;;;;;;;4.93;4.17;;;9.70;99.90;;;;;;4901706;29;20207;-78
2022/05/02 01:45:40;;;;;;;5.17;4.00;;;9.60;99.90;;;;;;4907017;29;20255;-79
2022/05/02 01:48:25;;;;;;;10.63;4.43;;;9.60;99.90;;;;;;4904589;29;20212;-78
2022/05/02 01:51:09;;;;;;;5.03;4.10;;;9.60;99.90;;;;;;4912553;29;20223;-77
2022/05/02 01:53:53;;;;;;;6.40;4.47;;;9.60;99.90;;;;;;4897526;29;20268;-77
2022/05/02 01:56:38;;;;;;;6.97;4.40;;;9.60;99.90;;;;;;4911857;29;20224;-78
2022/05/02 01:59:23;;;;;;;9.47;4.70;;;9.60;99.90;;;;;;4898984;29;20179;-77
2022/05/02 02:02:07;;;;;;;8.43;4.30;;;9.60;99.90;;;;;;4906452;29;20241;-77
2022/05/02 02:07:55;;;;;;;7.47;4.43;;;9.50;99.90;;;;;;4899257;29;20300;-78
2022/05/02 02:10:39;;;;;;;5.07;4.37;;;9.50;99.90;;;;;;4904180;29;20250;-78
2022/05/02 02:13:23;;;;;;;6.50;4.77;;;9.50;99.90;;;;;;4902217;29;20264;-78
2022/05/02 02:16:10;;;;;;;7.23;4.30;;;9.50;99.90;;;;;;4903043;29;20212;-77
2022/05/02 02:18:54;;;;;;;6.00;4.67;;;9.50;99.90;;;;;;4891170;29;20208;-78
2022/05/02 02:21:39;;;;;;;7.27;4.80;;;9.50;99.90;;;;;;4891543;29;20245;-78
2022/05/02 02:24:23;;;;;;;4.67;4.27;;;9.50;99.90;;;;;;4902815;29;20208;-78
2022/05/02 02:27:07;;;;;;;5.97;4.13;;;9.40;99.90;;;;;;4904500;29;20271;-78
2022/05/02 02:29:52;;;;;;;8.57;4.60;;;9.40;99.90;;;;;;4906595;29;20223;-77
2022/05/02 02:32:36;;;;;;;5.30;4.73;;;9.40;99.90;;;;;;4887273;29;20226;-78
2022/05/02 02:35:21;;;;;;;6.30;4.83;;;9.40;99.90;;;;;;4906569;29;20203;-78
2022/05/02 02:38:05;;;;;;;6.63;4.90;;;9.40;99.90;;;;;;4897442;29;20260;-78
2022/05/02 02:40:49;;;;;;;6.10;4.50;;;9.30;99.90;;;;;;4903272;29;20254;-78
2022/05/02 02:43:34;;;;;;;5.53;4.27;;;9.30;99.90;;;;;;4899983;29;20213;-78
2022/05/02 02:46:18;;;;;;;5.67;4.53;;;9.30;99.90;;;;;;4900649;29;20268;-77
2022/05/02 02:49:02;;;;;;;4.93;4.43;;;9.30;99.90;;;;;;4899390;29;20199;-78
2022/05/02 02:51:47;;;;;;;9.17;4.40;;;9.30;99.90;;;;;;4900977;29;20242;-78
2022/05/02 02:54:30;;;;;;;7.17;4.50;;;9.30;99.90;;;;;;4902354;29;20247;-78
2022/05/02 02:57:15;;;;;;;6.97;4.83;;;9.30;99.90;;;;;;4905061;29;20191;-78
2022/05/02 03:00:00;;;;;;;6.57;4.70;;;9.30;99.90;;;;;;4903794;29;20220;-78
2022/05/02 03:02:44;;;;;;;6.37;4.23;;;9.20;99.90;;;;;;4906632;29;20216;-78
2022/05/02 03:08:36;;;;;;;8.97;4.97;;;9.20;99.90;;;;;;4904642;29;20244;-78
2022/05/02 03:11:20;;;;;;;5.73;4.80;;;9.20;99.90;;;;;;4909683;29;20356;-78
2022/05/02 03:14:04;;;;;;;6.03;4.73;;;9.20;99.90;;;;;;4902593;29;20184;-77
2022/05/02 03:16:48;;;;;;;6.43;4.57;;;9.20;99.90;;;;;;4914234;29;20208;-78
2022/05/02 03:19:33;;;;;;;6.20;4.53;;;9.20;99.90;;;;;;4902511;29;20280;-77
2022/05/02 03:22:17;;;;;;;6.17;4.87;;;9.20;99.90;;;;;;4895513;29;20723;-78
2022/05/02 03:25:01;;;;;;;5.67;4.37;;;9.10;99.90;;;;;;4909001;29;20184;-78
2022/05/02 03:27:46;;;;;;;5.27;4.60;;;9.10;99.90;;;;;;4906151;29;20192;-77
2022/05/02 03:30:30;;;;;;;7.47;4.43;;;9.10;99.90;;;;;;4902973;29;20305;-78
2022/05/02 03:33:14;;;;;;;6.43;4.70;;;9.10;99.90;;;;;;4897375;29;20235;-77
2022/05/02 03:35:58;;;;;;;5.10;4.60;;;9.10;99.90;;;;;;4902735;29;20731;-78
2022/05/02 03:38:43;;;;;;;7.70;5.17;;;9.00;99.90;;;;;;4899479;29;20188;-77
2022/05/02 03:41:27;;;;;;;7.40;4.93;;;9.00;99.90;;;;;;4909885;29;20244;-77
2022/05/02 03:44:11;;;;;;;7.80;4.40;;;9.00;99.90;;;;;;4909119;29;20196;-77
2022/05/02 03:46:55;;;;;;;7.17;4.80;;;8.90;99.90;;;;;;4897792;29;20196;-77
2022/05/02 03:49:39;;;;;;;5.77;4.50;;;8.90;99.90;;;;;;4889070;29;20191;-77
2022/05/02 03:52:23;;;;;;;6.57;4.93;;;8.90;99.90;;;;;;4902253;29;20222;-77
2022/05/02 03:55:08;;;;;;;8.50;5.13;;;8.80;99.90;;;;;;4898351;29;20191;-77
2022/05/02 03:57:52;;;;;;;6.60;5.10;;;8.80;99.90;;;;;;4897672;29;20203;-78
2022/05/02 04:00:37;;;;;;;8.33;5.07;;;8.80;99.90;;;;;;4897457;29;20279;-77
2022/05/02 04:03:21;;;;;;;7.17;5.30;;;8.70;99.90;;;;;;4899446;29;20244;-77
2022/05/02 04:06:06;;;;;;;7.50;5.37;;;8.70;99.90;;;;;;4900691;29;20290;-77
2022/05/02 04:08:50;;;;;;;8.90;5.13;;;8.60;99.90;;;;;;4899873;29;20203;-77
2022/05/02 04:11:35;;;;;;;5.03;4.53;;;8.60;99.90;;;;;;4900586;29;20240;-77
2022/05/02 04:14:19;;;;;;;10.10;5.00;;;8.60;99.90;;;;;;4900301;29;20200;-78
2022/05/02 04:17:03;;;;;;;7.80;4.83;;;8.60;99.90;;;;;;4904994;29;20200;-76
2022/05/02 04:19:47;;;;;;;6.87;4.70;;;8.60;99.90;;;;;;4891780;29;20574;-76
2022/05/02 04:22:32;;;;;;;7.40;5.23;;;8.50;99.90;;;;;;4889894;29;20594;-76
2022/05/02 04:25:17;;;;;;;8.50;5.20;;;8.50;99.90;;;;;;4898353;29;20256;-76
2022/05/02 04:28:01;;;;;;;8.03;5.17;;;8.50;99.90;;;;;;4894299;29;20280;-76
2022/05/02 04:30:45;;;;;;;7.13;5.43;;;8.50;99.90;;;;;;4897539;29;20266;-76
2022/05/02 04:33:30;;;;;;;6.80;5.13;;;8.50;99.90;;;;;;4898196;29;20224;-76
2022/05/02 04:36:14;;;;;;;7.97;4.97;;;8.50;99.90;;;;;;4900588;29;20309;-76
2022/05/02 04:38:58;;;;;;;13.70;5.40;;;8.50;99.90;;;;;;4896183;29;20364;-76
2022/05/02 04:41:42;;;;;;;7.93;5.77;;;8.50;99.90;;;;;;4899889;29;20215;-76
2022/05/02 04:44:26;;;;;;;11.73;5.50;;;8.50;99.90;;;;;;4896622;29;20275;-76
2022/05/02 04:47:10;;;;;;;11.03;5.33;;;8.50;99.90;;;;;;4893071;29;20229;-76
2022/05/02 04:49:54;;;;;;;6.93;5.03;;;8.50;99.90;;;;;;4899830;29;20183;-76
2022/05/02 04:52:38;;;;;;;6.60;5.23;;;8.50;99.90;;;;;;4896145;29;20223;-76
2022/05/02 04:55:23;;;;;;;4.90;4.47;;;8.50;99.90;;;;;;4899120;29;20196;-76
2022/05/02 04:58:07;;;;;;;7.17;5.00;;;8.50;99.90;;;;;;4909604;29;20191;-77
2022/05/02 05:00:51;;;;;;;8.23;5.30;;;8.50;99.90;;;;;;4905793;29;20237;-77
2022/05/02 05:03:36;;;;;;;9.83;5.50;;;8.50;99.90;;;;;;4900255;29;20187;-76
2022/05/02 05:06:20;;;;;;;12.30;5.30;;;8.50;99.90;;;;;;4897691;29;20207;-76
2022/05/02 05:09:04;;;;;;;8.03;5.67;;;8.50;99.90;;;;;;4903518;29;20199;-76
2022/05/02 05:12:06;;;;;;;9.43;5.10;;;8.50;99.90;;;;;;4897578;29;20220;-77
2022/05/02 05:18:13;;;;;;;9.77;5.23;;;8.50;99.90;;;;;;4894923;29;20192;-78
2022/05/02 05:20:57;;;;;;;10.50;5.60;;;8.50;99.90;;;;;;4895412;29;20211;-77
2022/05/02 05:24:20;;;;;;;6.70;5.20;;;8.50;99.90;;;;;;4906158;29;20232;-76
2022/05/02 05:27:04;;;;;;;10.20;5.10;;;8.50;99.90;;;;;;4902768;29;20543;-76
2022/05/02 05:29:48;;;;;;;11.67;5.93;;;8.50;99.90;;;;;;4889219;29;20581;-76
2022/05/02 05:32:57;;;;;;;7.23;5.53;;;8.50;99.90;;;;;;4899171;29;20210;-77
2022/05/02 05:36:00;;;;;;;10.50;5.33;;;8.50;99.90;;;;;;4909622;29;20210;-77
2022/05/02 05:39:07;;;;;;;6.87;5.07;;;8.60;99.90;;;;;;4889500;29;20187;-77
2022/05/02 05:42:23;;;;;;;13.80;5.67;;;8.60;99.90;;;;;;4892428;29;20223;-77
2022/05/02 05:45:34;;;;;;;5.73;5.13;;;8.60;99.90;;;;;;4895559;29;20192;-77
2022/05/02 05:48:39;;;;;;;9.80;6.13;;;8.60;99.90;;;;;;4871772;29;20270;-76
2022/05/02 05:51:32;;;;;;;8.20;5.70;;;8.70;99.90;;;;;;4891425;29;20216;-77
2022/05/02 05:54:41;;;;;;;8.03;5.50;;;8.70;99.90;;;;;;4898240;29;20195;-77
2022/05/02 05:57:57;;;;;;;6.53;5.40;;;8.80;99.90;;;;;;4890861;29;20247;-77
2022/05/02 06:00:47;;;;;;;7.40;5.67;;;8.80;99.90;;;;;;4893482;29;20583;-77
2022/05/02 06:03:37;;;;;;;9.17;5.63;;;8.90;99.90;;;;;;4892384;29;20261;-78
2022/05/02 06:06:22;;;;;;;7.30;5.30;;;9.00;99.90;;;;;;4897264;29;20200;-77
2022/05/02 06:09:08;;;;;;;10.40;5.10;;;9.00;99.90;;;;;;4897751;29;20228;-77
2022/05/02 06:11:55;;;;;;;7.80;5.50;;;9.00;99.90;;;;;;4895925;29;20219;-77
2022/05/02 06:20:59;;;;;;;8.13;5.17;;;9.10;99.90;;;;;;4900658;29;20281;-77
2022/05/02 06:23:48;;;;;;;6.00;4.87;;;9.20;99.90;;;;;;4894247;29;20248;-77
2022/05/02 06:26:32;;;;;;;6.60;5.50;;;9.20;99.90;;;;;;4897698;29;20712;-76
2022/05/02 06:29:20;;;;;;;11.37;5.90;;;9.30;99.90;;;;;;4898614;29;20725;-76
2022/05/02 06:32:10;;;;;;;8.80;6.33;;;9.40;99.90;;;;;;4894106;29;20381;-77
2022/05/02 06:34:55;;;;;;;9.10;5.43;;;9.50;99.90;;;;;;4891517;29;20180;-77
2022/05/02 06:37:54;;;;;;;7.37;4.83;;;9.50;99.90;;;;;;4898648;29;20191;-77
2022/05/02 06:41:04;;;;;;;8.23;5.40;;;9.60;99.90;;;;;;4913638;29;20216;-77
2022/05/02 06:44:33;;;;;;;9.43;5.63;;;9.70;99.90;;;;;;4895308;29;20247;-77
2022/05/02 06:47:41;;;;;;;7.00;5.43;;;9.80;99.90;;;;;;4840544;29;20193;-77
2022/05/02 06:50:29;;;;;;;10.27;5.73;;;9.80;99.90;;;;;;4898249;29;20231;-76
2022/05/02 06:53:59;;;;;;;7.50;5.63;;;9.80;99.90;;;;;;4905137;29;20207;-76
2022/05/02 06:56:50;;;;;;;7.87;5.70;;;9.90;99.90;;;;;;4847214;29;20278;-77
2022/05/02 06:59:47;;;;;;;8.80;5.27;;;10.00;99.90;;;;;;4897126;29;20236;-77
2022/05/02 07:03:09;;;;;;;7.37;5.57;;;10.10;99.90;;;;;;4897321;29;20234;-77
2022/05/02 07:06:08;;;;;;;11.37;6.30;;;10.20;99.90;;;;;;4898101;29;20229;-77
2022/05/02 07:09:00;;;;;;;16.17;5.80;;;10.30;99.90;;;;;;4906812;29;20604;-77
2022/05/02 07:12:01;;;;;;;8.33;5.80;;;10.40;99.90;;;;;;4901367;29;20265;-77
2022/05/02 07:15:06;;;;;;;6.87;5.20;;;10.50;99.90;;;;;;4899140;29;20202;-76
2022/05/02 07:18:05;;;;;;;8.50;5.60;;;10.50;99.90;;;;;;4886970;29;20182;-77
2022/05/02 07:21:03;;;;;;;9.57;5.50;;;10.70;99.90;;;;;;4903845;29;20222;-76
2022/05/02 07:24:09;;;;;;;8.20;5.17;;;10.70;99.90;;;;;;4894613;29;20195;-77
2022/05/02 07:27:24;;;;;;;6.30;5.70;;;10.70;99.90;;;;;;4900200;29;20285;-77
2022/05/02 07:30:10;;;;;;;8.87;5.67;;;10.80;99.90;;;;;;4880497;29;20224;-77
2022/05/02 07:32:55;;;;;;;11.63;5.33;;;11.00;99.90;;;;;;4883085;29;20272;-77
2022/05/02 07:35:42;;;;;;;7.23;5.93;;;11.00;99.90;;;;;;4907055;29;20192;-77
2022/05/02 07:38:31;;;;;;;7.37;5.63;;;11.10;99.90;;;;;;4915632;29;20195;-78
2022/05/02 07:41:23;;;;;;;9.57;5.53;;;11.20;99.90;;;;;;4917684;29;20211;-79
2022/05/02 07:44:13;;;;;;;6.50;4.83;;;11.30;99.90;;;;;;4907407;29;20229;-78
2022/05/02 07:47:02;;;;;;;7.67;5.43;;;11.40;99.90;;;;;;4902994;29;20288;-78
2022/05/02 07:49:49;;;;;;;7.60;5.20;;;11.40;99.90;;;;;;4904649;29;20222;-78
2022/05/02 07:52:39;;;;;;;7.80;5.10;;;11.50;99.90;;;;;;4906079;29;20225;-78
2022/05/02 07:55:24;;;;;;;6.43;5.07;;;11.60;99.90;;;;;;4905670;29;20283;-78
2022/05/02 07:58:10;;;;;;;9.00;5.30;;;11.60;99.90;;;;;;4903907;29;20207;-78
2022/05/02 08:00:54;;;;;;;5.83;4.70;;;11.80;99.90;;;;;;4900876;29;20263;-78
2022/05/02 08:03:38;;;;;;;7.60;5.07;;;11.90;99.90;;;;;;4895870;29;20211;-77
2022/05/02 08:07:03;;;;;;;5.97;4.87;;;12.00;99.90;;;;;;4898205;29;20337;-77
2022/05/02 08:09:48;;;;;;;7.83;5.27;;;12.20;99.90;;;;;;4891725;29;20245;-77
2022/05/02 08:12:40;;;;;;;9.57;5.10;;;12.20;99.90;;;;;;4897755;29;20699;-77
2022/05/02 08:15:53;;;;;;;7.17;4.80;;;12.30;99.90;;;;;;4911234;29;20212;-78
2022/05/02 08:18:54;;;;;;;10.30;5.73;;;12.40;99.90;;;;;;4905406;29;20272;-77
2022/05/02 08:21:45;;;;;;;7.47;5.03;;;12.50;99.90;;;;;;4898474;29;20216;-77
2022/05/02 08:28:23;;;;;;;5.73;4.53;;;12.70;99.90;;;;;;4899278;29;20203;-77
2022/05/02 08:31:24;;;;;;;8.90;5.00;;;12.70;99.90;;;;;;4902953;29;20211;-77
2022/05/02 08:34:28;;;;;;;6.33;4.60;;;12.80;99.90;;;;;;4906547;29;20299;-77
2022/05/02 08:37:22;;;;;;;4.63;4.23;;;12.90;99.90;;;;;;4897486;29;20203;-77
2022/05/02 08:40:24;;;;;;;8.07;4.53;;;13.00;99.90;;;;;;4881849;29;20197;-77
2022/05/02 08:43:50;;;;;;;5.80;4.07;;;13.10;99.90;;;;;;4892091;29;20228;-77
2022/05/02 08:46:52;;;;;;;6.03;4.17;;;13.10;99.90;;;;;;4915353;29;20192;-77
2022/05/02 08:50:08;;;;;;;4.60;3.70;;;13.10;99.90;;;;;;4900519;29;20312;-78
2022/05/02 08:53:17;;;;;;;7.20;4.57;;;13.20;99.90;;;;;;4900425;29;20692;-77
2022/05/02 08:56:28;;;;;;;5.67;4.23;;;13.30;99.90;;;;;;4901274;29;20261;-77
2022/05/02 08:59:50;;;;;;;10.33;4.97;;;13.40;99.90;;;;;;4897883;29;20279;-77
2022/05/02 09:03:18;;;;;;;7.97;5.07;;;13.50;99.90;;;;;;4898842;29;20299;-77
2022/05/02 09:06:28;;;;;;;5.80;4.73;;;13.60;99.90;;;;;;4882917;29;20208;-77
2022/05/02 09:09:25;;;;;;;7.33;4.90;;;13.50;99.90;;;;;;4885576;29;20200;-77
2022/05/02 09:12:16;;;;;;;8.13;5.13;;;13.60;99.90;;;;;;4881106;29;20221;-77
2022/05/02 09:15:20;;;;;;;8.57;5.23;;;13.70;99.90;;;;;;4896214;29;20248;-77
2022/05/02 09:18:19;;;;;;;5.77;4.93;;;13.70;99.90;;;;;;4882176;29;20649;-77
2022/05/02 09:21:28;;;;;;;9.00;5.23;;;13.80;99.90;;;;;;4882197;29;20266;-77
2022/05/02 09:24:49;;;;;;;7.70;5.43;;;13.80;99.90;;;;;;4908151;29;20196;-77
2022/05/02 09:27:37;;;;;;;7.07;4.87;;;13.80;99.90;;;;;;4893788;29;20281;-78
2022/05/02 09:30:57;;;;;;;6.50;4.80;;;13.80;99.90;;;;;;4907085;29;20203;-77
2022/05/02 09:34:09;;;;;;;7.83;4.67;;;13.80;99.90;;;;;;4896827;29;20232;-77
2022/05/02 09:37:11;;;;;;;6.33;4.70;;;14.00;99.90;;;;;;4909157;29;20248;-77
2022/05/02 09:40:04;;;;;;;8.20;5.03;;;14.10;99.90;;;;;;4899864;29;20218;-77
2022/05/02 09:43:17;;;;;;;6.13;5.03;;;14.10;99.90;;;;;;4901466;29;20206;-77
2022/05/02 09:49:37;;;;;;;9.17;4.90;;;14.00;99.90;;;;;;4900607;29;20204;-77
2022/05/02 09:53:00;;;;;;;8.43;4.50;;;14.00;99.90;;;;;;4904368;29;20235;-77
2022/05/02 09:59:26;;;;;;;8.33;4.70;;;14.20;99.90;;;;;;4884707;29;20185;-77
2022/05/02 10:02:20;;;;;;;7.17;5.03;;;14.30;99.90;;;;;;4887620;29;20219;-77
2022/05/02 10:05:06;;;;;;;11.13;5.23;;;14.30;99.90;;;;;;4903569;29;20228;-77
2022/05/02 10:08:32;;;;;;;6.77;5.07;;;14.40;99.90;;;;;;4901981;29;20253;-77
2022/05/02 10:11:47;;;;;;;5.50;4.50;;;14.40;99.90;;;;;;4906570;29;20231;-77
2022/05/02 10:14:41;;;;;;;7.40;5.03;;;14.40;99.90;;;;;;4917073;29;20211;-77
2022/05/02 10:17:51;;;;;;;6.73;4.40;;;14.50;99.90;;;;;;4898487;29;20264;-77
2022/05/02 10:21:03;;;;;;;6.07;5.17;;;14.50;99.90;;;;;;4901746;29;20243;-77
2022/05/02 10:24:11;;;;;;;6.50;5.47;;;14.60;99.90;;;;;;4905695;29;20219;-77
2022/05/02 10:27:40;;;;;;;6.00;5.30;;;14.60;99.90;;;;;;4894452;29;20276;-77
2022/05/02 10:30:28;;;;;;;8.00;5.47;;;14.60;99.90;;;;;;4902157;29;20286;-77
2022/05/02 10:33:15;;;;;;;7.70;5.03;;;14.70;99.90;;;;;;4883701;29;20228;-78
2022/05/02 10:36:03;;;;;;;7.90;5.47;;;14.70;99.90;;;;;;4883908;29;20700;-77
2022/05/02 10:39:01;;;;;;;6.67;4.70;;;14.70;99.90;;;;;;4897990;29;20196;-77
2022/05/02 10:41:48;;;;;;;6.77;4.70;;;14.80;99.90;;;;;;4891923;29;20292;-77
2022/05/02 10:45:09;;;;;;;9.13;5.50;;;14.80;99.90;;;;;;4895980;29;20673;-77
2022/05/02 10:48:19;;;;;;;7.73;5.37;;;14.90;99.90;;;;;;4880382;29;20195;-78
2022/05/02 10:51:26;;;;;;;8.07;5.00;;;14.90;99.90;;;;;;4890226;29;20212;-77
2022/05/02 10:54:38;;;;;;;6.73;5.53;;;15.00;99.90;;;;;;4894895;29;20216;-76
2022/05/02 10:57:22;;;;;;;7.10;5.10;;;15.00;99.90;;;;;;4884369;29;20197;-77
2022/05/02 11:00:10;;;;;;;10.43;5.80;;;15.00;99.90;;;;;;4898104;29;20188;-77
2022/05/02 11:03:16;;;;;;;6.53;4.73;;;15.10;99.90;;;;;;4891870;29;20228;-79
2022/05/02 11:06:03;;;;;;;11.43;5.57;;;15.20;99.90;;;;;;4898028;29;20259;-77
2022/05/02 11:08:58;;;;;;;8.27;5.97;;;15.30;99.90;;;;;;4903389;29;20252;-77
2022/05/02 11:11:50;;;;;;;7.97;5.47;;;15.30;99.90;;;;;;4902210;29;20220;-77
2022/05/02 11:14:49;;;;;;;9.17;5.57;;;15.30;99.90;;;;;;4889334;29;20193;-77
2022/05/02 11:17:51;;;;;;;7.17;5.73;;;15.30;99.90;;;;;;4870406;29;20226;-77
2022/05/02 11:20:46;;;;;;;5.83;5.17;;;15.40;99.90;;;;;;4892097;29;20264;-77
2022/05/02 11:24:13;;;;;;;6.90;5.57;;;15.50;99.90;;;;;;4891920;29;20220;-78
2022/05/02 11:27:14;;;;;;;6.87;5.13;;;15.60;99.90;;;;;;4886200;29;20196;-77
2022/05/02 11:30:06;;;;;;;14.00;6.77;;;15.60;99.90;;;;;;4892496;29;20214;-77
2022/05/02 11:33:02;;;;;;;9.43;6.20;;;15.60;99.90;;;;;;4896662;29;20273;-77
2022/05/02 11:35:48;;;;;;;9.70;6.17;;;15.60;99.90;;;;;;4895196;29;20354;-77
2022/05/02 11:38:57;;;;;;;7.03;6.00;;;15.60;99.90;;;;;;4891083;29;20278;-77
2022/05/02 11:41:43;;;;;;;9.30;5.97;;;15.60;99.90;;;;;;4893435;29;20268;-77
2022/05/02 11:44:33;;;;;;;7.10;5.67;;;15.70;99.90;;;;;;4896664;29;20326;-77
2022/05/02 11:47:32;;;;;;;8.77;5.27;;;15.70;99.90;;;;;;4882038;29;20319;-77
2022/05/02 11:50:28;;;;;;;11.27;5.33;;;15.80;99.90;;;;;;4896824;29;20296;-78
2022/05/02 11:53:14;;;;;;;6.23;5.63;;;15.90;99.90;;;;;;4878461;29;20219;-78
2022/05/02 11:56:03;;;;;;;6.53;5.83;;;16.00;99.90;;;;;;4890898;29;20206;-77
2022/05/02 11:58:56;;;;;;;7.77;5.77;;;16.10;99.90;;;;;;4889239;29;20220;-77
2022/05/02 12:01:41;;;;;;;6.83;5.70;;;16.10;99.90;;;;;;4892064;29;20227;-77
2022/05/02 12:04:29;;;;;;;10.93;6.37;;;16.20;99.90;;;;;;4895998;29;20196;-77
2022/05/02 12:07:16;;;;;;;8.07;6.23;;;16.30;99.90;;;;;;4901111;29;20722;-77
2022/05/02 12:10:12;;;;;;;11.97;6.07;;;16.30;99.90;;;;;;4881483;29;20221;-77
2022/05/02 12:12:57;;;;;;;10.47;5.73;;;16.40;99.90;;;;;;4896002;29;20212;-78
2022/05/02 12:16:03;;;;;;;10.13;6.80;;;16.50;99.90;;;;;;4894657;29;20187;-77
2022/05/02 12:18:51;;;;;;;7.37;5.83;;;16.50;99.90;;;;;;4890369;29;20183;-78
2022/05/02 12:21:42;;;;;;;8.37;6.27;;;16.40;99.90;;;;;;4901121;29;20346;-78
2022/05/02 12:24:33;;;;;;;8.97;6.20;;;16.40;99.90;;;;;;4879315;29;20261;-78
2022/05/02 12:27:19;;;;;;;6.97;6.07;;;16.40;99.90;;;;;;4890117;29;20362;-78
2022/05/02 12:30:05;;;;;;;8.37;6.03;;;16.40;99.90;;;;;;4890602;29;20310;-78
2022/05/02 12:32:50;;;;;;;10.03;6.30;;;16.40;99.90;;;;;;4911804;29;20562;-78
2022/05/02 12:35:36;;;;;;;7.87;5.90;;;16.40;99.90;;;;;;4896790;29;20224;-78
2022/05/02 12:38:26;;;;;;;8.33;5.93;;;16.40;99.90;;;;;;4901944;29;20184;-78
2022/05/02 12:41:13;;;;;;;9.63;6.90;;;16.50;99.90;;;;;;4888223;29;20227;-78
2022/05/02 12:44:07;;;;;;;7.67;5.90;;;16.60;99.90;;;;;;4901944;29;20252;-78
2022/05/02 12:46:53;;;;;;;8.63;6.70;;;16.60;99.90;;;;;;4906215;29;20272;-78
2022/05/02 12:49:53;;;;;;;8.83;6.43;;;16.50;99.90;;;;;;4920170;29;20180;-78
2022/05/02 12:52:45;;;;;;;8.03;6.10;;;16.50;99.90;;;;;;4918791;29;20232;-78
2022/05/02 12:55:34;;;;;;;7.00;5.90;;;16.40;99.90;;;;;;4895993;29;20649;-78
2022/05/02 13:01:25;;;;;;;13.80;7.50;;;16.60;99.90;;;;;;4900139;29;20272;-78
2022/05/02 13:04:20;;;;;;;12.07;6.47;;;16.60;99.90;;;;;;4900121;29;20183;-76
2022/05/02 13:07:05;;;;;;;15.43;6.80;;;16.60;99.90;;;;;;4903036;29;20283;-77
2022/05/02 13:09:53;;;;;;;7.87;6.23;;;16.70;99.90;;;;;;4896274;29;20204;-77
2022/05/02 13:12:38;;;;;;;9.03;7.63;;;16.70;99.90;;;;;;4909642;29;20239;-76
2022/05/02 13:15:29;;;;;;;9.93;6.83;;;16.80;99.90;;;;;;4903230;29;20196;-77
2022/05/02 13:18:18;;;;;;;11.20;7.33;;;16.90;99.90;;;;;;4899229;29;20229;-76
2022/05/02 13:21:10;;;;;;;8.50;7.53;;;16.90;99.90;;;;;;4898130;29;20297;-77
2022/05/02 13:24:11;;;;;;;8.33;6.93;;;17.00;99.90;;;;;;4898627;29;20204;-77
2022/05/02 13:27:02;;;;;;;10.33;7.03;;;17.00;99.90;;;;;;4898479;29;20231;-77
2022/05/02 13:29:57;;;;;;;8.17;7.23;;;17.10;99.90;;;;;;4882416;29;20235;-77
2022/05/02 13:32:57;;;;;;;10.80;7.33;;;17.10;99.90;;;;;;4897504;29;20324;-77
2022/05/02 13:35:42;;;;;;;9.30;7.00;;;17.20;99.90;;;;;;4881048;29;20188;-77
2022/05/02 13:38:32;;;;;;;11.37;7.63;;;17.30;99.90;;;;;;4891460;29;20187;-78
2022/05/02 13:41:27;;;;;;;8.37;6.80;;;17.30;99.90;;;;;;4914985;29;20343;-77
2022/05/02 13:44:21;;;;;;;9.87;6.93;;;17.30;99.90;;;;;;4885418;29;20196;-77
2022/05/02 13:47:11;;;;;;;11.93;7.57;;;17.40;99.90;;;;;;4895642;29;20232;-77
2022/05/02 13:50:06;;;;;;;9.80;7.13;;;17.30;99.90;;;;;;4889463;29;20205;-77
2022/05/02 13:52:51;;;;;;;10.23;7.13;;;17.30;99.90;;;;;;4906197;29;20203;-77
2022/05/02 13:55:56;;;;;;;9.53;7.30;;;17.20;99.90;;;;;;4905599;29;20196;-77
2022/05/02 13:59:04;;;;;;;8.17;6.63;;;17.30;99.90;;;;;;4903061;29;20193;-77
2022/05/02 14:02:06;;;;;;;13.27;7.40;;;17.30;99.90;;;;;;4897397;29;20235;-77
2022/05/02 14:04:54;;;;;;;11.27;7.90;;;17.40;99.90;;;;;;4896051;29;20183;-77
2022/05/02 14:07:40;;;;;;;9.80;7.27;;;17.40;99.90;;;;;;4906938;29;20187;-77
2022/05/02 14:10:24;;;;;;;9.23;7.20;;;17.40;99.90;;;;;;4900921;29;20710;-77
2022/05/02 14:13:19;;;;;;;9.17;6.90;;;17.40;99.90;;;;;;4902037;29;20243;-78
2022/05/02 14:16:05;;;;;;;14.47;8.03;;;17.50;99.90;;;;;;4901171;29;20245;-77
2022/05/02 14:18:59;;;;;;;9.53;7.77;;;17.60;99.90;;;;;;4895182;29;20209;-77
2022/05/02 14:21:45;;;;;;;10.47;7.80;;;17.70;99.90;;;;;;4888009;29;20241;-77
2022/05/02 14:24:42;;;;;;;8.80;7.00;;;17.70;99.90;;;;;;4900950;29;20191;-77
2022/05/02 14:27:29;;;;;;;10.40;6.63;;;17.80;99.90;;;;;;4897808;29;20270;-77
2022/05/02 14:30:22;;;;;;;10.30;6.73;;;17.80;99.90;;;;;;4900429;29;20288;-77
2022/05/02 14:33:09;;;;;;;8.73;6.97;;;17.90;99.90;;;;;;4908972;29;20220;-77
2022/05/02 14:35:56;;;;;;;13.07;7.10;;;17.90;99.90;;;;;;4902782;29;20328;-77
2022/05/02 14:38:42;;;;;;;9.00;6.27;;;17.90;99.90;;;;;;4901137;29;20273;-77
2022/05/02 14:41:26;;;;;;;11.03;7.13;;;17.90;99.90;;;;;;4900455;29;20321;-77
2022/05/02 14:44:12;;;;;;;8.70;6.87;;;18.00;99.90;;;;;;4886080;29;20245;-77
2022/05/02 14:47:00;;;;;;;9.27;6.30;;;18.00;99.90;;;;;;4903071;29;20693;-77
2022/05/02 14:49:44;;;;;;;8.43;6.57;;;18.10;99.90;;;;;;4895806;29;20203;-77
2022/05/02 14:52:35;;;;;;;9.67;6.83;;;18.10;99.90;;;;;;4912347;29;20307;-77
2022/05/02 14:55:19;;;;;;;13.07;6.43;;;18.10;99.90;;;;;;4898899;29;20200;-77
2022/05/02 14:58:06;;;;;;;7.97;7.07;;;18.10;99.90;;;;;;4902380;29;20231;-77
2022/05/02 15:00:56;;;;;;;8.57;7.00;;;18.10;99.90;;;;;;4895766;29;20269;-77
2022/05/02 15:03:48;;;;;;;8.77;6.77;;;18.10;99.90;;;;;;4902457;29;20207;-77
2022/05/02 15:06:35;;;;;;;8.70;6.87;;;18.10;99.90;;;;;;4908764;29;20692;-77
2022/05/02 15:13:03;;;;;;;8.33;7.10;;;18.30;99.90;;;;;;4905581;29;20240;-77
2022/05/02 15:15:52;;;;;;;9.73;7.37;;;18.20;99.90;;;;;;4899232;29;20668;-77
2022/05/02 15:22:16;;;;;;;10.27;7.23;;;18.10;99.90;;;;;;4907559;29;20288;-77
2022/05/02 15:25:09;;;;;;;11.87;7.43;;;18.10;99.90;;;;;;4897212;29;20259;-76
2022/05/02 15:37:22;;;;;;;11.50;7.53;;;18.10;99.90;;;;;;4910625;29;20548;-78
2022/05/02 15:40:43;;;;;;;17.33;7.23;;;18.20;99.90;;;;;;4902966;29;20199;-78
2022/05/02 15:43:30;;;;;;;9.20;7.33;;;18.20;99.90;;;;;;4903221;29;20195;-78
2022/05/02 15:46:14;;;;;;;9.23;7.10;;;18.20;99.90;;;;;;4902590;29;20204;-78